Hlavní strana
METAR-TAF:

METAR-TAF

Letiště :

Mykolajiv, Ukrajina

zeměpisná šířka: 47-03-29N, zeměpisná délka: 031-55-15E, výška: 56 m

Aktuální stav počasí

Zpráva byla vytvořena před 9 hodinami a 8 minutami, v 15:00 UTC
Východojihovýchodní vítr 10 kt
Teplota 11°C
Vlhkost vzduchu 100%
Tlak 1024 hPa
Viditelnost: 0250 m
mlha

METAR: UKON 121500Z 11005MPS 0250 FG VV001 11/11 Q1024 R04/190070 NOSIG

Čas: 02:08 (00:08 UTC)

Předpověď počasí

Zpráva byla vytvořena před 10 hodinami a 5 minutami, v 14:03 UTC
Předpověď platná od 12 v 15 UTC do 12 v 24 UTC
Východní vítr 10 kt s nárazy do 19 kt
Viditelnost: 0200 m
ve výšce 100 ft
mlha

TAF: UKON 121403Z 1215/1224 10005G10MPS 0200 FG VV001

Stav a předpovědi počasí z více než 4 000 letišť (zprávy METAR a TAF).

Červené a žluté tečky na mapě představují dostupné meteorologické stanice.

Když kurzor umístíte na tečku, zobrazí se název stanice.

Pak kliknutím zobrazíte stav a předpověď počasí.

Chcete-li změnit mapu, kliknutím na zelené tlačítko se znaménkem +mapu přiblížíte, kliknutím na zelené tlačítko se znaménkem – mapu oddálíte a kliknutím na zelené šipky přejdete na sousední mapy.


METAR-TAF: